createdAt,value
2022-07-29T00:00:12.274Z,1.70
2022-07-29T00:02:42.560Z,1.58
2022-07-29T00:05:16.250Z,1.58
2022-07-29T00:07:46.405Z,1.48
2022-07-29T00:10:16.539Z,2.10
2022-07-29T00:12:46.444Z,1.40
2022-07-29T00:15:17.441Z,1.00
2022-07-29T00:17:47.361Z,1.20
2022-07-29T00:20:20.420Z,1.20
2022-07-29T00:22:59.521Z,1.10
2022-07-29T00:25:43.374Z,1.10
2022-07-29T00:28:27.785Z,1.10
2022-07-29T00:30:57.818Z,1.00
2022-07-29T00:33:28.109Z,1.17
2022-07-29T00:36:04.084Z,1.20
2022-07-29T00:38:34.147Z,0.90
2022-07-29T00:41:21.979Z,1.10
2022-07-29T00:43:52.047Z,1.42
2022-07-29T00:47:30.830Z,0.95
2022-07-29T00:50:21.242Z,1.17
2022-07-29T00:52:51.829Z,1.10
2022-07-29T00:55:37.724Z,1.00
2022-07-29T00:58:07.987Z,1.35
2022-07-29T01:00:48.793Z,1.10
2022-07-29T01:03:18.947Z,1.25
2022-07-29T01:05:51.411Z,1.05
2022-07-29T01:08:47.994Z,1.25
2022-07-29T01:11:19.014Z,1.00
2022-07-29T01:13:51.331Z,0.80
2022-07-29T01:16:25.211Z,0.65
2022-07-29T01:18:58.016Z,0.88
2022-07-29T01:21:34.170Z,1.00
2022-07-29T01:26:46.084Z,0.70
2022-07-29T01:29:38.493Z,0.88
2022-07-29T01:32:38.429Z,0.77
2022-07-29T01:35:19.992Z,0.80
2022-07-29T01:37:52.820Z,0.70
2022-07-29T01:40:24.484Z,1.00
2022-07-29T01:42:59.623Z,0.80
2022-07-29T01:45:33.210Z,0.70
2022-07-29T01:48:21.410Z,0.90
2022-07-29T01:51:29.622Z,0.95
2022-07-29T01:54:05.817Z,0.95
2022-07-29T01:59:37.272Z,0.80
2022-07-29T02:02:35.000Z,0.60
2022-07-29T02:05:13.209Z,0.75
2022-07-29T02:07:44.395Z,0.73
2022-07-29T02:10:18.721Z,0.63
2022-07-29T02:12:58.709Z,0.73
2022-07-29T02:15:39.842Z,0.80
2022-07-29T02:18:26.405Z,0.75
2022-07-29T02:20:57.821Z,0.70
2022-07-29T02:23:45.054Z,0.70
2022-07-29T02:26:21.896Z,0.70
2022-07-29T02:28:53.716Z,0.80
2022-07-29T02:31:25.810Z,0.70
2022-07-29T02:33:56.880Z,0.70
2022-07-29T02:36:27.604Z,0.70
2022-07-29T02:39:00.274Z,0.80
2022-07-29T02:41:38.713Z,0.80
2022-07-29T02:44:18.975Z,0.60
2022-07-29T02:46:52.477Z,0.65
2022-07-29T02:52:56.986Z,0.80
2022-07-29T02:58:44.916Z,0.82
2022-07-29T03:01:26.389Z,0.65
2022-07-29T03:03:57.466Z,0.77
2022-07-29T03:06:38.594Z,0.90
2022-07-29T03:09:13.348Z,0.80
2022-07-29T03:11:49.552Z,0.60
2022-07-29T03:14:26.065Z,0.80
2022-07-29T03:17:11.063Z,0.70
2022-07-29T03:19:41.176Z,0.80
2022-07-29T03:22:11.325Z,0.60
2022-07-29T03:24:41.528Z,0.60
2022-07-29T03:27:17.027Z,0.52
2022-07-29T03:29:49.893Z,0.80
2022-07-29T03:32:25.121Z,0.60
2022-07-29T03:34:55.456Z,0.52
2022-07-29T03:37:28.681Z,0.60
2022-07-29T03:40:02.396Z,0.55
2022-07-29T03:42:36.604Z,0.50
2022-07-29T03:45:12.886Z,0.45
2022-07-29T03:47:51.162Z,0.50
2022-07-29T03:50:23.393Z,0.50
2022-07-29T03:52:53.650Z,0.50
2022-07-29T03:55:31.406Z,0.50
2022-07-29T03:58:01.558Z,0.50
2022-07-29T04:00:31.717Z,0.50
2022-07-29T04:03:01.777Z,0.50
2022-07-29T04:05:32.307Z,0.50
2022-07-29T05:00:55.533Z,0.50
2022-07-29T05:03:26.485Z,0.40
2022-07-29T05:05:56.639Z,0.40
2022-07-29T05:08:26.936Z,0.45
2022-07-29T05:10:57.025Z,0.47
2022-07-29T05:13:26.975Z,0.50
2022-07-29T05:16:15.804Z,0.50
2022-07-29T05:18:45.955Z,0.40
2022-07-29T05:21:15.976Z,0.57
2022-07-29T05:23:45.883Z,0.50
2022-07-29T05:26:16.371Z,0.50
2022-07-29T05:28:46.317Z,0.55
2022-07-29T05:31:17.229Z,0.70
2022-07-29T05:33:47.730Z,0.50
2022-07-29T05:36:17.960Z,0.52
2022-07-29T05:38:47.894Z,0.40
2022-07-29T05:41:17.912Z,0.57
2022-07-29T05:43:48.124Z,0.43
2022-07-29T05:46:18.787Z,0.63
2022-07-29T05:48:49.216Z,0.55
2022-07-29T05:51:19.295Z,0.95
2022-07-29T05:53:49.285Z,0.60
2022-07-29T05:56:20.276Z,0.70
2022-07-29T05:58:50.691Z,0.60
2022-07-29T06:01:21.218Z,0.50
2022-07-29T06:03:51.173Z,0.50
2022-07-29T06:06:21.092Z,0.60
2022-07-29T06:08:52.452Z,0.60
2022-07-29T06:11:23.483Z,0.60
2022-07-29T06:13:53.636Z,0.65
2022-07-29T06:16:30.193Z,0.60
2022-07-29T06:19:01.589Z,0.80
2022-07-29T06:21:36.233Z,0.82
2022-07-29T06:24:12.050Z,0.73
2022-07-29T06:26:42.353Z,0.60
2022-07-29T06:29:15.815Z,0.70
2022-07-29T06:31:45.800Z,0.70
2022-07-29T06:34:16.034Z,0.50
2022-07-29T06:36:46.996Z,0.60
2022-07-29T06:39:17.166Z,0.70
2022-07-29T06:41:51.485Z,1.20
2022-07-29T06:44:21.818Z,0.57
2022-07-29T06:46:54.105Z,0.73
2022-07-29T06:49:24.476Z,0.63
2022-07-29T06:51:54.467Z,0.80
2022-07-29T06:54:24.625Z,0.80
2022-07-29T06:56:55.707Z,0.70
2022-07-29T06:59:35.100Z,0.70
2022-07-29T07:02:06.010Z,0.85
2022-07-29T07:04:36.397Z,0.60
2022-07-29T07:07:06.640Z,0.80
2022-07-29T07:09:40.689Z,0.70
2022-07-29T07:12:11.715Z,0.85
2022-07-29T07:14:43.626Z,0.65
2022-07-29T07:17:13.786Z,0.80
2022-07-29T07:19:45.373Z,0.60
2022-07-29T07:25:18.874Z,0.70
2022-07-29T07:27:49.080Z,0.60
2022-07-29T07:30:19.367Z,0.70
2022-07-29T07:32:50.403Z,0.70
2022-07-29T07:35:20.482Z,0.70
2022-07-29T07:37:50.666Z,0.93
2022-07-29T07:40:20.630Z,1.00
2022-07-29T07:42:50.696Z,1.23
2022-07-29T07:45:20.697Z,1.02
2022-07-29T07:47:50.672Z,0.98
2022-07-29T07:50:20.795Z,1.23
2022-07-29T07:52:52.131Z,2.38
2022-07-29T07:55:22.759Z,4.28
2022-07-29T07:57:52.720Z,3.30
2022-07-29T08:00:23.302Z,3.00
2022-07-29T08:02:54.075Z,2.50
2022-07-29T08:05:24.175Z,2.05
2022-07-29T08:07:54.110Z,1.85
2022-07-29T08:10:42.904Z,1.40
2022-07-29T08:13:16.365Z,1.52
2022-07-29T08:15:49.232Z,2.30
2022-07-29T08:18:19.270Z,5.18
2022-07-29T08:20:49.611Z,5.20
2022-07-29T08:23:21.643Z,1.65
2022-07-29T08:25:51.612Z,1.70
2022-07-29T08:28:25.989Z,1.40
2022-07-29T08:30:56.364Z,1.17
2022-07-29T08:33:26.246Z,1.50
2022-07-29T08:35:56.186Z,1.40
2022-07-29T08:38:29.493Z,1.52
2022-07-29T08:40:59.466Z,1.33
2022-07-29T08:43:29.699Z,1.60
2022-07-29T08:45:59.678Z,1.70
2022-07-29T08:48:29.648Z,1.77
2022-07-29T08:51:00.708Z,1.40
2022-07-29T08:53:33.666Z,1.70
2022-07-29T08:56:04.415Z,1.58
2022-07-29T08:58:37.187Z,1.70
2022-07-29T09:01:12.374Z,1.60
2022-07-29T09:03:44.170Z,1.50
2022-07-29T09:06:17.375Z,1.48
2022-07-29T09:08:47.988Z,1.35
2022-07-29T09:11:18.183Z,1.42
2022-07-29T09:13:49.056Z,1.55
2022-07-29T09:16:37.252Z,1.40
2022-07-29T09:19:23.062Z,1.60
2022-07-29T09:22:03.247Z,1.48
2022-07-29T09:24:44.278Z,1.48
2022-07-29T09:27:24.674Z,1.48
2022-07-29T09:30:25.565Z,2.10
2022-07-29T09:33:04.224Z,2.22
2022-07-29T09:35:34.891Z,2.20
2022-07-29T09:38:17.741Z,2.25
2022-07-29T09:40:59.898Z,1.85
2022-07-29T09:43:36.024Z,1.83
2022-07-29T09:46:18.400Z,2.50
2022-07-29T09:48:48.347Z,2.55
2022-07-29T09:51:26.913Z,2.50
2022-07-29T09:53:59.929Z,2.25
2022-07-29T09:56:48.113Z,2.15
2022-07-29T09:59:18.647Z,2.53
2022-07-29T10:01:49.144Z,2.50
2022-07-29T10:04:19.504Z,2.10
2022-07-29T10:07:05.364Z,2.08
2022-07-29T10:09:36.038Z,2.28
2022-07-29T10:12:12.147Z,2.00
2022-07-29T10:17:13.909Z,2.08
2022-07-29T10:19:45.386Z,1.77
2022-07-29T10:22:31.190Z,2.08
2022-07-29T10:25:06.017Z,2.53
2022-07-29T10:27:35.984Z,1.92
2022-07-29T10:30:07.191Z,1.23
2022-07-29T10:32:41.037Z,1.30
2022-07-29T10:35:10.934Z,1.10
2022-07-29T10:37:47.931Z,1.38
2022-07-29T10:40:54.923Z,1.35
2022-07-29T10:43:30.031Z,0.80
2022-07-29T10:46:03.294Z,1.15
2022-07-29T10:48:37.689Z,1.35
2022-07-29T10:51:11.832Z,1.00
2022-07-29T10:53:56.124Z,1.08
2022-07-29T10:56:28.571Z,1.10
2022-07-29T10:59:17.182Z,1.08
2022-07-29T11:01:53.530Z,1.25
2022-07-29T11:04:42.506Z,1.55
2022-07-29T11:07:13.220Z,1.60
2022-07-29T11:09:45.808Z,1.17
2022-07-29T11:12:50.454Z,1.20
2022-07-29T11:15:21.781Z,1.80
2022-07-29T11:18:00.362Z,2.40
2022-07-29T11:20:47.787Z,2.70
2022-07-29T11:23:34.064Z,3.00
2022-07-29T11:26:23.481Z,4.13
2022-07-29T11:28:56.677Z,4.30
2022-07-29T11:31:35.970Z,4.50
2022-07-29T11:34:28.159Z,5.00
2022-07-29T11:37:18.017Z,4.78
2022-07-29T11:40:02.058Z,5.07
2022-07-29T11:42:34.404Z,4.03
2022-07-29T11:45:41.640Z,4.30
2022-07-29T11:48:00.726Z,4.20
2022-07-29T11:53:33.501Z,6.57
2022-07-29T11:56:05.292Z,5.32
2022-07-29T11:58:36.331Z,5.20
2022-07-29T12:01:09.842Z,4.18
2022-07-29T12:03:40.911Z,4.55
2022-07-29T12:06:20.975Z,4.93
2022-07-29T12:08:51.248Z,5.10
2022-07-29T12:11:24.514Z,4.38
2022-07-29T12:13:55.584Z,4.07
2022-07-29T12:16:29.712Z,3.70
2022-07-29T12:19:02.329Z,4.00
2022-07-29T12:21:33.466Z,3.15
2022-07-29T12:24:05.894Z,3.08
2022-07-29T12:29:15.524Z,3.33
2022-07-29T12:31:50.338Z,2.80
2022-07-29T12:34:20.392Z,3.10
2022-07-29T12:36:50.342Z,2.97
2022-07-29T12:39:20.969Z,3.38
2022-07-29T12:41:50.983Z,2.08
2022-07-29T12:44:21.019Z,2.00
2022-07-29T12:47:04.983Z,2.22
2022-07-29T12:49:38.160Z,2.05
2022-07-29T12:52:26.429Z,2.47
2022-07-29T12:54:58.259Z,1.92
2022-07-29T12:57:29.501Z,1.90
2022-07-29T13:00:03.484Z,1.60
2022-07-29T13:02:33.491Z,1.65
2022-07-29T13:05:04.755Z,1.17
2022-07-29T13:07:54.324Z,1.42
2022-07-29T13:10:27.372Z,1.38
2022-07-29T13:13:07.825Z,1.15
2022-07-29T13:15:37.917Z,1.92
2022-07-29T13:18:08.562Z,1.30
2022-07-29T13:20:38.662Z,1.45
2022-07-29T13:23:08.619Z,1.50
2022-07-29T13:25:44.371Z,1.45
2022-07-29T13:28:14.288Z,2.03
2022-07-29T13:30:44.878Z,1.88
2022-07-29T13:33:15.620Z,2.00
2022-07-29T13:35:45.986Z,1.70
2022-07-29T13:38:17.190Z,1.92
2022-07-29T13:40:47.176Z,2.10
2022-07-29T13:43:18.163Z,1.90
2022-07-29T13:45:48.253Z,1.52
2022-07-29T13:48:18.221Z,1.85
2022-07-29T13:50:49.228Z,1.60
2022-07-29T13:53:19.239Z,1.98
2022-07-29T13:55:57.427Z,2.42
2022-07-29T13:58:27.419Z,5.82
2022-07-29T14:00:57.461Z,5.32
2022-07-29T14:03:27.910Z,3.38
2022-07-29T14:05:58.897Z,2.60
2022-07-29T14:08:31.722Z,2.35
2022-07-29T14:11:01.692Z,2.92
2022-07-29T14:13:31.700Z,2.88
2022-07-29T14:16:02.185Z,3.03
2022-07-29T14:18:32.075Z,2.78
2022-07-29T14:21:02.488Z,3.65
2022-07-29T14:23:33.680Z,8.25
2022-07-29T14:26:03.650Z,8.50
2022-07-29T14:28:41.839Z,6.20
2022-07-29T14:31:12.156Z,9.93
2022-07-29T14:33:42.066Z,9.70
2022-07-29T14:36:16.268Z,5.10
2022-07-29T14:38:46.617Z,2.22
2022-07-29T14:41:17.593Z,1.63
2022-07-29T14:43:48.665Z,2.15
2022-07-29T14:46:18.797Z,2.08
2022-07-29T14:48:49.174Z,2.42
2022-07-29T14:51:20.077Z,2.00
2022-07-29T14:53:50.007Z,2.08
2022-07-29T14:56:36.445Z,2.38
2022-07-29T14:59:07.991Z,1.67
2022-07-29T15:01:39.061Z,2.15
2022-07-29T15:04:08.991Z,1.80
2022-07-29T15:06:39.413Z,4.50
2022-07-29T15:09:09.326Z,3.20
2022-07-29T15:11:39.237Z,2.30
2022-07-29T15:14:09.829Z,2.67
2022-07-29T15:16:43.549Z,2.88
2022-07-29T15:19:14.805Z,2.30
2022-07-29T15:21:48.856Z,2.42
2022-07-29T15:24:29.823Z,1.80
2022-07-29T15:26:59.947Z,2.28
2022-07-29T15:29:30.142Z,2.58
2022-07-29T15:32:00.556Z,2.97
2022-07-29T15:34:30.925Z,2.22
2022-07-29T15:37:00.936Z,2.00
2022-07-29T15:39:30.963Z,1.67
2022-07-29T15:42:04.045Z,2.20
2022-07-29T15:44:34.377Z,3.13
2022-07-29T15:47:09.864Z,3.53
2022-07-29T15:49:47.190Z,3.67
2022-07-29T15:52:25.806Z,4.70
2022-07-29T15:54:59.701Z,3.33
2022-07-29T15:57:29.727Z,2.13
2022-07-29T16:00:00.889Z,2.03
2022-07-29T16:02:30.910Z,1.95
2022-07-29T16:05:00.802Z,1.92
2022-07-29T16:07:31.390Z,1.73
2022-07-29T16:10:02.701Z,1.75
2022-07-29T16:12:32.714Z,1.95
2022-07-29T16:15:07.606Z,2.13
2022-07-29T16:17:39.693Z,1.65
2022-07-29T16:20:11.169Z,2.45
2022-07-29T16:22:43.923Z,1.85
2022-07-29T16:25:13.917Z,2.67
2022-07-29T16:27:43.818Z,5.85
2022-07-29T16:30:14.373Z,6.75
2022-07-29T16:32:45.463Z,7.25
2022-07-29T16:35:15.861Z,7.00
2022-07-29T16:37:46.951Z,6.00
2022-07-29T16:40:17.399Z,4.20
2022-07-29T16:42:47.574Z,3.80
2022-07-29T16:45:21.288Z,3.72
2022-07-29T16:47:51.625Z,3.28
2022-07-29T16:50:22.625Z,4.30
2022-07-29T16:52:52.572Z,5.22
2022-07-29T16:55:23.013Z,5.55
2022-07-29T16:57:54.257Z,5.22
2022-07-29T17:00:26.358Z,4.28
2022-07-29T17:02:56.295Z,3.40
2022-07-29T17:05:26.451Z,3.30
2022-07-29T17:07:56.450Z,2.38
2022-07-29T17:10:26.428Z,2.60
2022-07-29T17:12:57.925Z,3.05
2022-07-29T17:15:28.452Z,3.00
2022-07-29T17:17:58.386Z,3.40
2022-07-29T17:20:28.969Z,2.42
2022-07-29T17:22:59.275Z,2.47
2022-07-29T17:25:29.294Z,1.90
2022-07-29T17:28:01.117Z,2.30
2022-07-29T17:30:31.989Z,2.00
2022-07-29T17:33:02.956Z,1.60
2022-07-29T17:35:50.967Z,2.00
2022-07-29T17:38:20.854Z,1.73
2022-07-29T17:40:50.743Z,1.70
2022-07-29T17:43:20.655Z,1.80
2022-07-29T17:45:50.885Z,1.73
2022-07-29T17:48:22.664Z,2.63
2022-07-29T17:50:54.608Z,2.22
2022-07-29T18:27:45.591Z,2.05
2022-07-29T18:30:16.649Z,2.90
2022-07-29T18:33:04.947Z,2.75
2022-07-29T18:35:36.560Z,2.20
2022-07-29T18:38:18.916Z,1.60
2022-07-29T18:40:50.087Z,1.50
2022-07-29T18:43:20.409Z,1.33
2022-07-29T18:45:51.253Z,1.30
2022-07-29T18:48:22.360Z,1.60
2022-07-29T18:50:52.304Z,1.60
2022-07-29T18:53:22.359Z,1.98
2022-07-29T18:55:52.243Z,1.75
2022-07-29T18:58:22.200Z,1.90
2022-07-29T19:00:52.161Z,2.03
2022-07-29T19:03:22.078Z,2.40
2022-07-29T19:05:52.016Z,2.47
2022-07-29T19:08:22.095Z,1.98
2022-07-29T19:10:52.452Z,2.20
2022-07-29T19:13:22.386Z,2.63
2022-07-29T19:15:52.338Z,2.80
2022-07-29T19:18:22.414Z,2.80
2022-07-29T19:20:52.316Z,9.32
2022-07-29T19:23:22.281Z,5.25
2022-07-29T19:25:53.972Z,2.90
2022-07-29T19:28:27.261Z,2.92
2022-07-29T19:30:57.193Z,2.50
2022-07-29T19:33:27.200Z,2.10
2022-07-29T19:35:57.099Z,2.30
2022-07-29T19:38:27.507Z,2.55
2022-07-29T19:40:58.125Z,2.22
2022-07-29T19:43:50.378Z,2.58
2022-07-29T19:46:18.011Z,2.40
2022-07-29T19:48:48.082Z,2.10
2022-07-29T19:51:18.266Z,2.13
2022-07-29T19:53:48.362Z,2.03
2022-07-29T19:56:18.257Z,2.40
2022-07-29T19:58:49.719Z,1.88
2022-07-29T20:01:19.713Z,2.10
2022-07-29T20:03:50.081Z,2.00
2022-07-29T20:06:20.162Z,1.85
2022-07-29T20:08:51.902Z,1.95
2022-07-29T20:11:23.268Z,1.70
2022-07-29T20:13:53.174Z,1.55
2022-07-29T20:16:25.467Z,1.50
2022-07-29T20:18:55.991Z,3.22
2022-07-29T20:21:28.341Z,3.42
2022-07-29T20:24:01.950Z,4.50
2022-07-29T20:26:32.253Z,4.65
2022-07-29T20:29:02.597Z,4.10
2022-07-29T20:31:34.071Z,4.10
2022-07-29T20:34:04.357Z,3.60
2022-07-29T20:36:40.406Z,3.13
2022-07-29T20:41:41.128Z,3.03
2022-07-29T20:44:11.051Z,2.97
2022-07-29T20:46:43.870Z,3.10
2022-07-29T20:49:13.892Z,2.70
2022-07-29T20:51:44.159Z,2.20
2022-07-29T20:54:23.666Z,2.88
2022-07-29T20:56:53.631Z,2.20
2022-07-29T20:59:23.596Z,2.30
2022-07-29T21:01:53.582Z,3.00
2022-07-29T21:04:30.521Z,3.10
2022-07-29T21:07:01.853Z,3.05
2022-07-29T21:09:32.551Z,2.70
2022-07-29T21:12:08.608Z,2.70
2022-07-29T21:14:42.583Z,2.40
2022-07-29T21:17:14.330Z,2.80
2022-07-29T21:19:45.915Z,2.47
2022-07-29T21:22:16.174Z,3.15
2022-07-29T21:24:48.383Z,2.17
2022-07-29T21:27:39.391Z,2.00
2022-07-29T21:38:17.983Z,2.58
2022-07-29T21:40:54.449Z,2.17
2022-07-29T21:43:24.697Z,2.20
2022-07-29T21:45:54.667Z,2.10
2022-07-29T21:48:25.438Z,1.95
2022-07-29T21:50:55.762Z,1.42
2022-07-29T21:53:26.952Z,1.25
2022-07-29T21:55:57.454Z,1.25
2022-07-29T21:58:27.429Z,1.40
2022-07-29T22:00:58.388Z,1.48
2022-07-29T22:03:28.394Z,1.20
2022-07-29T22:05:58.365Z,1.60
2022-07-29T22:08:28.281Z,1.67
2022-07-29T22:10:58.593Z,2.42
2022-07-29T22:13:28.568Z,2.17
2022-07-29T22:16:00.679Z,2.55
2022-07-29T22:18:30.995Z,2.20
2022-07-29T22:21:01.307Z,2.40
2022-07-29T22:23:31.233Z,2.55
2022-07-29T22:26:01.127Z,2.50
2022-07-29T22:28:31.042Z,2.45
2022-07-29T22:31:01.024Z,2.10
2022-07-29T22:33:31.017Z,2.38
2022-07-29T22:36:01.333Z,3.25
2022-07-29T22:38:31.419Z,3.10
2022-07-29T22:41:01.744Z,3.28
2022-07-29T22:43:33.536Z,2.47
2022-07-29T22:46:03.592Z,2.50
2022-07-29T22:48:34.022Z,2.30
2022-07-29T22:51:04.104Z,2.00
2022-07-29T22:53:34.507Z,2.00
2022-07-29T22:56:04.419Z,2.20
2022-07-29T22:58:34.748Z,1.77
2022-07-29T23:01:04.721Z,2.22
2022-07-29T23:03:34.943Z,1.80
2022-07-29T23:06:05.019Z,2.50
2022-07-29T23:08:35.663Z,2.00
2022-07-29T23:11:05.599Z,2.03
2022-07-29T23:13:36.604Z,2.28
2022-07-29T23:16:06.600Z,2.17
2022-07-29T23:18:36.551Z,2.13
2022-07-29T23:21:06.475Z,1.90
2022-07-29T23:23:37.810Z,2.00
2022-07-29T23:26:07.795Z,2.25
2022-07-29T23:28:37.719Z,2.03
2022-07-29T23:31:07.692Z,1.98
2022-07-29T23:33:37.661Z,2.03
2022-07-29T23:36:18.378Z,2.35
2022-07-29T23:38:51.475Z,2.10
2022-07-29T23:45:03.187Z,2.10
2022-07-29T23:50:58.507Z,2.08
2022-07-29T23:53:31.998Z,2.20
2022-07-29T23:56:02.183Z,2.55
2022-07-29T23:58:32.674Z,2.30
